Time;durP1;ratioP1;P1;durP2;ratioP2;P2;SDS_P1;SDS_P2;PMS_P1;PMS_P2;Temp;Humidity;BMP_temperature;BMP_pressure;BME280_temperature;BME280_humidity;BME280_pressure;Samples;Min_cycle;Max_cycle;Signal;HPM_P1;HPM_P2
2022/08/03 00:00:16;;;;;;;;;;;;;;;23.85;62.55;101162.69;1021323;29;615;-77
2022/08/03 00:01:06;;;;;;;;;;;;;;;23.88;62.49;101159.59;1021152;29;699;-76
2022/08/03 00:01:57;;;;;;;;;;;;;;;23.91;62.34;101157.56;1021260;28;662;-75
2022/08/03 00:02:47;;;;;;;;;;;;;;;23.81;62.43;101165.97;1021182;29;679;-76
2022/08/03 00:03:38;;;;;;;;;;;;;;;23.80;62.66;101165.13;1021139;29;682;-76
2022/08/03 00:04:28;;;;;;;;;;;;;;;23.86;62.36;101161.66;1024953;28;621;-76
2022/08/03 00:05:18;;;;;;;;;;;;;;;23.86;62.38;101164.38;1021442;28;642;-76
2022/08/03 00:06:09;;;;;;;;;;;;;;;23.86;62.39;101158.94;1021402;28;669;-76
2022/08/03 00:06:59;;;;;;;;;;;;;;;23.82;62.23;101164.94;1021009;29;630;-76
2022/08/03 00:07:50;;;;;;;;;;;;;;;23.81;62.79;101161.38;1020776;29;701;-75
2022/08/03 00:08:40;;;;;;;;;;;;;;;23.78;62.63;101159.00;1020300;29;1816;-76
2022/08/03 00:09:31;;;;;;;;;;;;;;;23.80;62.48;101161.53;1021541;28;1794;-76
2022/08/03 00:10:21;;;;;;;;;;;;;;;23.78;62.62;101161.72;1021834;28;610;-76
2022/08/03 00:11:11;;;;;;;;;;;;;;;23.79;62.64;101157.97;1021761;28;681;-76
2022/08/03 00:12:02;;;;;;;;;;;;;;;23.76;62.56;101161.03;1021689;28;563;-76
2022/08/03 00:12:53;;;;;;;;;;;;;;;23.77;62.90;101157.31;1021293;29;631;-76
2022/08/03 00:13:43;;;;;;;;;;;;;;;23.81;62.71;101161.38;1020739;29;635;-76
2022/08/03 00:14:33;;;;;;;;;;;;;;;23.82;62.24;101156.78;1021799;28;666;-76
2022/08/03 00:15:24;;;;;;;;;;;;;;;23.81;62.50;101155.94;1021791;28;611;-76
2022/08/03 00:16:14;;;;;;;;;;;;;;;23.85;62.55;101162.69;1019996;29;631;-76
2022/08/03 00:17:05;;;;;;;;;;;;;;;23.76;62.62;101163.75;1021746;28;653;-76
2022/08/03 00:17:55;;;;;;;;;;;;;;;23.77;62.92;101162.75;1021631;28;708;-76
2022/08/03 00:18:45;;;;;;;;;;;;;;;23.77;62.97;101157.31;1021727;29;639;-76
2022/08/03 00:19:36;;;;;;;;;;;;;;;23.74;62.56;101156.81;1021759;28;659;-76
2022/08/03 00:20:26;;;;;;;;;;;;;;;23.77;62.57;101165.47;1021768;28;638;-75
2022/08/03 00:21:17;;;;;;;;;;;;;;;23.78;62.67;101155.44;1021690;28;647;-75
2022/08/03 00:22:07;;;;;;;;;;;;;;;23.80;62.43;101164.25;1021688;28;631;-75
2022/08/03 00:22:58;;;;;;;;;;;;;;;23.80;62.58;101158.81;1020004;29;1055;-76
2022/08/03 00:23:48;;;;;;;;;;;;;;;23.83;62.44;101153.84;1021179;29;663;-76
2022/08/03 00:24:38;;;;;;;;;;;;;;;23.82;62.45;101160.34;1021070;29;563;-75
2022/08/03 00:25:29;;;;;;;;;;;;;;;23.78;62.76;101155.44;1021252;29;706;-76
2022/08/03 00:26:19;;;;;;;;;;;;;;;23.71;62.55;101155.28;1016898;29;659;-76
2022/08/03 00:27:10;;;;;;;;;;;;;;;23.64;62.97;101159.75;1016460;29;655;-77
2022/08/03 00:28:00;;;;;;;;;;;;;;;23.71;63.13;101159.88;1020414;29;620;-77
2022/08/03 00:28:51;;;;;;;;;;;;;;;23.74;62.55;101160.38;1017852;29;638;-77
2022/08/03 00:29:41;;;;;;;;;;;;;;;23.77;62.52;101162.75;1017238;29;647;-76
2022/08/03 00:30:32;;;;;;;;;;;;;;;23.72;62.66;101165.13;1017091;29;1913;-76
2022/08/03 00:31:22;;;;;;;;;;;;;;;23.73;62.43;101161.41;1017333;29;591;-76
2022/08/03 00:32:12;;;;;;;;;;;;;;;23.73;62.78;101164.13;1017154;29;651;-76
2022/08/03 00:33:03;;;;;;;;;;;;;;;23.77;62.50;101164.63;1017214;29;659;-76
2022/08/03 00:33:53;;;;;;;;;;;;;;;23.77;62.76;101160.03;1017242;29;620;-76
2022/08/03 00:34:44;;;;;;;;;;;;;;;23.74;62.30;101162.25;1017167;29;557;-76
2022/08/03 00:35:34;;;;;;;;;;;;;;;23.76;62.83;101162.91;1016921;29;707;-76
2022/08/03 00:36:25;;;;;;;;;;;;;;;23.73;62.48;101164.13;1017351;29;682;-77
2022/08/03 00:37:15;;;;;;;;;;;;;;;23.73;63.21;101158.66;1017170;29;711;-76
2022/08/03 00:38:05;;;;;;;;;;;;;;;23.75;62.80;101158.50;1017171;29;603;-77
2022/08/03 00:38:56;;;;;;;;;;;;;;;23.77;62.88;101162.75;1017260;29;729;-77
2022/08/03 00:39:46;;;;;;;;;;;;;;;23.79;62.49;101154.41;1017146;29;671;-77
2022/08/03 00:40:37;;;;;;;;;;;;;;;23.77;62.66;101162.75;1017125;29;691;-77
2022/08/03 00:41:27;;;;;;;;;;;;;;;23.77;62.72;101159.16;1017337;29;647;-77
2022/08/03 00:42:18;;;;;;;;;;;;;;;23.53;62.75;101151.97;1013021;29;714;-77
2022/08/03 00:43:09;;;;;;;;;;;;;;;23.62;63.53;101156.34;1013008;29;611;-77
2022/08/03 00:44:00;;;;;;;;;;;;;;;23.65;63.25;101158.69;1016753;29;635;-77
2022/08/03 00:44:50;;;;;;;;;;;;;;;23.68;62.72;101154.78;1016766;29;592;-77
2022/08/03 00:45:40;;;;;;;;;;;;;;;23.68;62.75;101152.91;1016655;29;775;-77
2022/08/03 00:46:31;;;;;;;;;;;;;;;23.66;62.98;101157.66;1017212;29;639;-78
2022/08/03 00:47:21;;;;;;;;;;;;;;;23.68;62.62;101154.78;1017350;29;699;-77
2022/08/03 00:48:12;;;;;;;;;;;;;;;23.68;62.97;101150.19;1020382;29;1682;-77
2022/08/03 00:49:02;;;;;;;;;;;;;;;23.63;63.06;101152.59;1020279;29;639;-77
2022/08/03 00:49:53;;;;;;;;;;;;;;;23.66;63.11;101154.94;1020890;29;1725;-76
2022/08/03 00:50:43;;;;;;;;;;;;;;;23.67;63.23;101156.66;1020983;29;1958;-77
2022/08/03 00:51:33;;;;;;;;;;;;;;;23.70;63.00;101148.13;1020959;29;600;-76
2022/08/03 00:52:24;;;;;;;;;;;;;;;23.67;62.75;101153.94;1021021;29;671;-76
2022/08/03 00:53:14;;;;;;;;;;;;;;;23.63;63.28;101151.75;1020967;29;725;-77
2022/08/03 00:54:05;;;;;;;;;;;;;;;23.65;63.33;101149.69;1021113;29;702;-77
2022/08/03 00:54:55;;;;;;;;;;;;;;;23.68;63.08;101155.63;1017071;29;874;-76
2022/08/03 00:55:46;;;;;;;;;;;;;;;23.56;62.68;101140.72;1016665;29;632;-76
2022/08/03 00:56:36;;;;;;;;;;;;;;;23.52;63.27;101145.66;1016244;29;600;-76
2022/08/03 00:57:26;;;;;;;;;;;;;;;23.58;62.84;101144.13;1016547;29;589;-76
2022/08/03 00:58:17;;;;;;;;;;;;;;;23.57;63.33;101139.69;1016690;29;595;-76
2022/08/03 00:59:07;;;;;;;;;;;;;;;23.59;63.55;101147.69;1016559;29;690;-77
2022/08/03 00:59:58;;;;;;;;;;;;;;;23.49;63.03;101145.97;1016075;29;726;-76
2022/08/03 01:00:49;;;;;;;;;;;;;;;23.53;63.33;101143.78;1019771;29;632;-76
2022/08/03 01:01:39;;;;;;;;;;;;;;;23.57;63.11;101141.56;1020119;29;627;-76
2022/08/03 01:02:30;;;;;;;;;;;;;;;23.57;63.11;101141.56;1016842;29;725;-76
2022/08/03 01:03:20;;;;;;;;;;;;;;;23.61;63.03;101138.34;1015991;29;703;-76
2022/08/03 01:04:11;;;;;;;;;;;;;;;23.60;63.31;101142.06;1015955;29;623;-76
2022/08/03 01:05:01;;;;;;;;;;;;;;;23.60;62.70;101138.50;1016157;29;644;-76
2022/08/03 01:05:52;;;;;;;;;;;;;;;23.59;63.50;101134.09;1015962;29;628;-76
2022/08/03 01:06:42;;;;;;;;;;;;;;;23.55;63.22;101139.03;1016654;29;694;-76
2022/08/03 01:07:33;;;;;;;;;;;;;;;23.57;63.50;101136.13;1016299;29;1603;-76
2022/08/03 01:08:23;;;;;;;;;;;;;;;23.59;62.95;101144.97;1016626;29;630;-76
2022/08/03 01:09:14;;;;;;;;;;;;;;;23.59;63.10;101134.09;1017857;28;627;-76
2022/08/03 01:10:04;;;;;;;;;;;;;;;23.62;63.00;101145.47;1016777;29;710;-77
2022/08/03 01:10:54;;;;;;;;;;;;;;;23.58;62.99;101143.28;1016508;29;1934;-76
2022/08/03 01:11:45;;;;;;;;;;;;;;;23.55;63.83;101139.03;1016537;29;558;-76
2022/08/03 01:12:35;;;;;;;;;;;;;;;23.58;63.58;101132.38;1016386;29;691;-76
2022/08/03 01:13:26;;;;;;;;;;;;;;;23.58;63.25;101144.13;1016322;29;620;-76
2022/08/03 01:14:16;;;;;;;;;;;;;;;23.63;63.28;101141.72;1016471;29;556;-76
2022/08/03 01:15:07;;;;;;;;;;;;;;;23.58;63.11;101141.41;1016404;29;646;-76
2022/08/03 01:15:57;;;;;;;;;;;;;;;23.60;63.40;101135.78;1017720;28;956;-76
2022/08/03 01:16:48;;;;;;;;;;;;;;;23.61;63.25;101142.91;1016720;29;584;-76
2022/08/03 01:17:38;;;;;;;;;;;;;;;23.60;63.43;101131.19;1017085;29;674;-76
2022/08/03 01:18:28;;;;;;;;;;;;;;;23.61;63.25;101130.16;1016342;29;611;-76
2022/08/03 01:19:19;;;;;;;;;;;;;;;23.62;63.23;101131.03;1017798;28;673;-76
2022/08/03 01:20:09;;;;;;;;;;;;;;;23.63;63.27;101135.44;1016679;29;698;-76
2022/08/03 01:21:00;;;;;;;;;;;;;;;23.61;63.49;101127.44;1016995;29;629;-76
2022/08/03 01:21:50;;;;;;;;;;;;;;;23.61;62.84;101138.34;1016556;29;660;-76
2022/08/03 01:22:41;;;;;;;;;;;;;;;23.59;63.10;101134.09;1016280;29;1332;-76
2022/08/03 01:23:31;;;;;;;;;;;;;;;23.54;63.54;101140.06;1016507;29;878;-76
2022/08/03 01:24:22;;;;;;;;;;;;;;;23.41;63.42;101131.59;1016377;29;710;-76
2022/08/03 01:25:12;;;;;;;;;;;;;;;23.41;63.65;101131.59;1016545;29;620;-77
2022/08/03 01:26:03;;;;;;;;;;;;;;;23.44;63.74;101131.22;1016414;29;791;-76
2022/08/03 01:26:53;;;;;;;;;;;;;;;23.42;63.45;101125.13;1017087;29;698;-76
2022/08/03 01:27:44;;;;;;;;;;;;;;;23.48;63.47;101133.41;1016677;29;1381;-76
2022/08/03 01:28:34;;;;;;;;;;;;;;;23.43;63.77;101126.81;1017046;29;642;-76
2022/08/03 01:29:24;;;;;;;;;;;;;;;23.44;63.59;101126.66;1019968;29;1524;-76
2022/08/03 01:30:15;;;;;;;;;;;;;;;23.49;63.29;101135.09;1020993;29;742;-76
2022/08/03 01:31:05;;;;;;;;;;;;;;;23.50;63.46;101133.22;1020839;29;628;-77
2022/08/03 01:31:56;;;;;;;;;;;;;;;23.52;63.27;101129.34;1020472;29;636;-76
2022/08/03 01:32:46;;;;;;;;;;;;;;;23.54;63.03;101127.28;1020815;29;601;-76
2022/08/03 01:33:37;;;;;;;;;;;;;;;23.54;63.53;101126.44;1020792;29;657;-76
2022/08/03 01:34:27;;;;;;;;;;;;;;;23.50;63.55;101128.63;1020292;29;734;-76
2022/08/03 01:35:18;;;;;;;;;;;;;;;23.48;63.69;101121.66;1020953;29;770;-76
2022/08/03 01:36:08;;;;;;;;;;;;;;;23.51;63.54;101133.09;1020730;29;663;-76
2022/08/03 01:36:58;;;;;;;;;;;;;;;23.53;63.19;101128.31;1020835;29;671;-76
2022/08/03 01:37:50;;;;;;;;;;;;;;;23.57;63.19;101126.09;1020926;29;679;-76
2022/08/03 01:38:40;;;;;;;;;;;;;;;23.58;63.32;101126.94;1020344;29;746;-76
2022/08/03 01:39:31;;;;;;;;;;;;;;;23.59;63.49;101131.38;1020378;29;686;-76
2022/08/03 01:40:21;;;;;;;;;;;;;;;23.56;63.67;101131.72;1020912;29;663;-76
2022/08/03 01:41:12;;;;;;;;;;;;;;;23.57;63.58;101128.81;1020675;29;706;-76
2022/08/03 01:42:04;;;;;;;;;;;;;;;23.57;63.43;101126.09;1020852;29;659;-76
2022/08/03 01:42:55;;;;;;;;;;;;;;;23.59;63.30;101131.38;1020404;29;711;-76
2022/08/03 01:43:48;;;;;;;;;;;;;;;23.58;63.43;101132.38;1020822;29;556;-76
2022/08/03 01:44:38;;;;;;;;;;;;;;;23.56;63.38;101134.44;1019885;29;691;-76
2022/08/03 01:45:28;;;;;;;;;;;;;;;23.54;63.33;101123.72;1020783;29;627;-75
2022/08/03 01:46:19;;;;;;;;;;;;;;;23.58;63.30;101133.25;1020737;29;769;-75
2022/08/03 01:47:09;;;;;;;;;;;;;;;23.57;63.68;101130.69;1019949;29;1535;-76
2022/08/03 01:48:00;;;;;;;;;;;;;;;23.56;63.50;101129.00;1020888;29;670;-77
2022/08/03 01:48:50;;;;;;;;;;;;;;;23.57;63.32;101136.97;1019897;29;663;-77
2022/08/03 01:49:41;;;;;;;;;;;;;;;23.55;63.29;101128.16;1020480;29;687;-77
2022/08/03 01:50:33;;;;;;;;;;;;;;;23.54;63.21;101126.44;1020851;29;1894;-76
2022/08/03 01:51:23;;;;;;;;;;;;;;;23.54;63.18;101126.44;1020795;29;603;-77
2022/08/03 01:52:13;;;;;;;;;;;;;;;23.51;63.46;101119.47;1020781;29;651;-77
2022/08/03 01:53:04;;;;;;;;;;;;;;;23.51;63.46;101122.22;1020839;29;612;-77
2022/08/03 01:53:54;;;;;;;;;;;;;;;23.51;63.74;101121.31;1020859;29;989;-77
2022/08/03 01:54:45;;;;;;;;;;;;;;;23.52;63.40;101123.06;1020894;29;706;-77
2022/08/03 01:55:35;;;;;;;;;;;;;;;23.55;63.45;101128.16;1020819;29;733;-77
2022/08/03 01:56:26;;;;;;;;;;;;;;;23.55;63.11;101117.25;1020359;29;697;-77
2022/08/03 01:57:16;;;;;;;;;;;;;;;23.51;63.74;101127.66;1020798;29;630;-77
2022/08/03 01:58:07;;;;;;;;;;;;;;;23.45;63.84;101122.06;1020880;29;623;-77
2022/08/03 01:58:57;;;;;;;;;;;;;;;23.47;63.70;101117.25;1020837;29;1202;-77
2022/08/03 01:59:48;;;;;;;;;;;;;;;23.48;63.39;101118.94;1019649;29;623;-77
2022/08/03 02:00:39;;;;;;;;;;;;;;;23.48;63.70;101121.66;1020288;29;554;-77
2022/08/03 02:01:29;;;;;;;;;;;;;;;23.48;63.91;101116.22;1019849;29;662;-77
2022/08/03 02:02:19;;;;;;;;;;;;;;;23.45;63.74;101120.19;1019498;29;538;-77
2022/08/03 02:03:10;;;;;;;;;;;;;;;23.45;63.81;101117.47;1019723;29;627;-77
2022/08/03 02:04:00;;;;;;;;;;;;;;;23.41;63.33;101120.69;1019614;29;608;-77
2022/08/03 02:04:51;;;;;;;;;;;;;;;23.45;63.52;101119.34;1019812;29;615;-76
2022/08/03 02:05:41;;;;;;;;;;;;;;;23.42;63.69;101122.41;1019825;29;655;-77
2022/08/03 02:06:32;;;;;;;;;;;;;;;23.48;63.80;101118.94;1019408;29;666;-77
2022/08/03 02:07:22;;;;;;;;;;;;;;;23.45;63.74;101116.59;1016666;29;695;-77
2022/08/03 02:08:13;;;;;;;;;;;;;;;23.46;63.58;101116.44;1017377;29;616;-78
2022/08/03 02:09:03;;;;;;;;;;;;;;;23.43;63.84;101118.66;1019689;29;1533;-79
2022/08/03 02:09:53;;;;;;;;;;;;;;;23.47;63.24;101114.53;1020277;29;624;-78
2022/08/03 02:10:45;;;;;;;;;;;;;;;23.44;63.50;101114.91;1020344;29;1894;-78
2022/08/03 02:11:35;;;;;;;;;;;;;;;23.34;63.92;101117.81;1020869;29;647;-79
2022/08/03 02:12:26;;;;;;;;;;;;;;;23.36;63.87;101123.09;1017082;29;1379;-78
2022/08/03 02:13:16;;;;;;;;;;;;;;;23.30;64.05;101112.91;1016601;29;670;-79
2022/08/03 02:14:07;;;;;;;;;;;;;;;23.16;64.15;101120.78;1020721;29;651;-79
2022/08/03 02:14:57;;;;;;;;;;;;;;;23.27;63.76;101113.28;1020345;29;782;-78
2022/08/03 02:15:48;;;;;;;;;;;;;;;23.28;64.21;101115.84;1020904;29;547;-78
2022/08/03 02:16:38;;;;;;;;;;;;;;;23.33;63.88;101107.13;1016064;29;671;-78
2022/08/03 02:17:28;;;;;;;;;;;;;;;23.37;63.66;101105.75;1015868;29;594;-78
2022/08/03 02:18:19;;;;;;;;;;;;;;;23.38;63.40;101111.03;1016650;29;643;-78
2022/08/03 02:19:09;;;;;;;;;;;;;;;23.40;63.34;101119.00;1017160;29;638;-78
2022/08/03 02:20:00;;;;;;;;;;;;;;;23.43;63.27;101114.06;1020688;29;627;-77
2022/08/03 02:20:50;;;;;;;;;;;;;;;23.45;63.66;101106.56;1020197;29;702;-78
2022/08/03 02:21:41;;;;;;;;;;;;;;;23.45;63.77;101108.44;1020300;29;607;-78
2022/08/03 02:22:31;;;;;;;;;;;;;;;23.45;63.61;101112.03;1020334;29;639;-78
2022/08/03 02:23:21;;;;;;;;;;;;;;;23.45;63.72;101111.16;1015696;29;718;-78
2022/08/03 02:24:12;;;;;;;;;;;;;;;23.34;63.79;101108.81;1016383;29;619;-78
2022/08/03 02:25:02;;;;;;;;;;;;;;;23.37;63.55;101116.63;1015532;29;741;-78
2022/08/03 02:25:53;;;;;;;;;;;;;;;23.36;63.52;101114.94;1019955;29;619;-78
2022/08/03 02:26:43;;;;;;;;;;;;;;;23.20;63.71;101108.53;1019746;29;1587;-78
2022/08/03 02:27:33;;;;;;;;;;;;;;;23.25;64.17;101104.44;1015819;29;647;-78
2022/08/03 02:28:24;;;;;;;;;;;;;;;23.22;64.12;101115.66;1017464;29;647;-78
2022/08/03 02:29:14;;;;;;;;;;;;;;;23.27;63.96;101107.84;1017357;29;710;-78
2022/08/03 02:30:05;;;;;;;;;;;;;;;23.32;63.50;101105.41;1017357;29;678;-78
2022/08/03 02:30:55;;;;;;;;;;;;;;;23.34;63.85;101106.94;1017239;29;1986;-78
2022/08/03 02:31:46;;;;;;;;;;;;;;;23.12;63.83;101103.09;1017074;29;792;-78
2022/08/03 02:32:36;;;;;;;;;;;;;;;23.16;64.34;101103.63;1017392;29;627;-78
2022/08/03 02:33:26;;;;;;;;;;;;;;;23.20;64.04;101103.09;1017350;29;627;-78
2022/08/03 02:34:17;;;;;;;;;;;;;;;23.24;63.86;101105.47;1017516;29;658;-78
2022/08/03 02:35:07;;;;;;;;;;;;;;;23.32;63.69;101099.97;1017245;29;682;-78
2022/08/03 02:35:58;;;;;;;;;;;;;;;23.32;63.48;101106.28;1017440;29;619;-78
2022/08/03 02:36:48;;;;;;;;;;;;;;;23.37;63.73;101103.03;1017419;29;768;-78
2022/08/03 02:37:39;;;;;;;;;;;;;;;23.37;63.94;101103.88;1017484;29;624;-77
2022/08/03 02:38:29;;;;;;;;;;;;;;;23.39;64.02;101103.69;1017390;29;670;-78
2022/08/03 02:39:19;;;;;;;;;;;;;;;23.40;63.47;101097.25;1017317;29;653;-78
2022/08/03 02:40:10;;;;;;;;;;;;;;;23.37;63.81;101103.03;1017439;29;658;-78
2022/08/03 02:41:00;;;;;;;;;;;;;;;23.27;63.99;101096.97;1015462;29;655;-78
2022/08/03 02:41:51;;;;;;;;;;;;;;;23.31;64.12;101101.84;1016667;29;675;-77
2022/08/03 02:42:41;;;;;;;;;;;;;;;23.31;63.72;101098.28;1016230;29;686;-79
2022/08/03 02:43:32;;;;;;;;;;;;;;;23.30;64.15;101102.03;1017202;29;694;-78
2022/08/03 02:44:23;;;;;;;;;;;;;;;23.28;64.12;101104.09;1017269;29;654;-78
2022/08/03 02:45:13;;;;;;;;;;;;;;;23.28;63.94;101106.81;1016386;29;627;-78
2022/08/03 02:46:03;;;;;;;;;;;;;;;23.32;63.59;101099.97;1017451;29;612;-78
2022/08/03 02:46:54;;;;;;;;;;;;;;;23.35;63.72;101100.47;1015355;29;632;-78
2022/08/03 02:47:44;;;;;;;;;;;;;;;23.38;63.41;101104.72;1016025;29;684;-75
2022/08/03 02:48:35;;;;;;;;;;;;;;;23.35;63.73;101097.75;1016266;29;694;-76
2022/08/03 02:49:25;;;;;;;;;;;;;;;23.36;64.09;101104.06;1016749;29;682;-75
2022/08/03 02:50:15;;;;;;;;;;;;;;;23.37;63.98;101098.44;1016786;29;690;-75
2022/08/03 02:51:06;;;;;;;;;;;;;;;23.38;63.83;101099.28;1016899;29;717;-76
2022/08/03 02:51:56;;;;;;;;;;;;;;;23.37;64.06;101097.59;1016851;29;659;-76
2022/08/03 02:52:47;;;;;;;;;;;;;;;23.39;63.39;101095.53;1016774;29;619;-76
2022/08/03 02:53:37;;;;;;;;;;;;;;;23.39;63.84;101095.53;1016789;29;583;-76
2022/08/03 02:54:28;;;;;;;;;;;;;;;23.39;63.83;101096.41;1016808;29;621;-75
2022/08/03 02:55:18;;;;;;;;;;;;;;;23.39;63.44;101095.53;1016813;29;663;-76
2022/08/03 02:56:08;;;;;;;;;;;;;;;23.40;63.55;101091.81;1016675;29;659;-76
2022/08/03 02:56:59;;;;;;;;;;;;;;;23.40;63.39;101092.66;1016838;29;639;-76
2022/08/03 02:57:49;;;;;;;;;;;;;;;23.38;63.53;101088.41;1016912;29;746;-76
2022/08/03 02:58:40;;;;;;;;;;;;;;;23.40;63.53;101089.94;1020288;29;1266;-76
2022/08/03 02:59:30;;;;;;;;;;;;;;;23.35;63.88;101089.59;1020381;29;647;-76
2022/08/03 03:00:20;;;;;;;;;;;;;;;23.33;64.20;101090.81;1017565;29;652;-76
2022/08/03 03:01:11;;;;;;;;;;;;;;;23.34;63.66;101092.50;1017419;29;614;-76
2022/08/03 03:02:01;;;;;;;;;;;;;;;23.24;64.14;101086.44;1016300;29;678;-76
2022/08/03 03:02:52;;;;;;;;;;;;;;;23.25;64.16;101086.25;1016896;29;857;-76
2022/08/03 03:03:44;;;;;;;;;;;;;;;23.29;64.05;101081.31;1016865;29;687;-77
2022/08/03 03:04:34;;;;;;;;;;;;;;;23.34;64.00;101087.06;1016621;29;686;-77
2022/08/03 03:05:25;;;;;;;;;;;;;;;23.34;64.03;101098.78;1016754;29;560;-77
2022/08/03 03:06:15;;;;;;;;;;;;;;;23.37;63.27;101093.00;1016623;29;1579;-77
2022/08/03 03:07:05;;;;;;;;;;;;;;;23.30;63.80;101092.00;1016915;29;643;-77
2022/08/03 03:07:56;;;;;;;;;;;;;;;23.32;63.59;101083.66;1017346;29;633;-77
2022/08/03 03:08:46;;;;;;;;;;;;;;;23.34;64.00;101084.34;1017283;29;698;-77
2022/08/03 03:09:37;;;;;;;;;;;;;;;23.35;63.51;101084.16;1017309;29;603;-77
2022/08/03 03:10:27;;;;;;;;;;;;;;;23.35;63.56;101086.88;1017209;29;681;-76
2022/08/03 03:11:17;;;;;;;;;;;;;;;23.31;64.08;101087.41;1017399;29;647;-76
2022/08/03 03:12:08;;;;;;;;;;;;;;;23.29;64.13;101084.88;1017097;29;639;-76
2022/08/03 03:12:58;;;;;;;;;;;;;;;23.33;63.82;101088.09;1016945;29;638;-76
2022/08/03 03:13:49;;;;;;;;;;;;;;;23.32;63.84;101083.66;1017258;29;650;-76
2022/08/03 03:14:39;;;;;;;;;;;;;;;23.29;63.64;101084.03;1017397;29;629;-76
2022/08/03 03:15:30;;;;;;;;;;;;;;;23.26;64.07;101082.53;1017298;29;649;-76
2022/08/03 03:16:20;;;;;;;;;;;;;;;23.22;64.36;101085.75;1017257;29;581;-76
2022/08/03 03:17:11;;;;;;;;;;;;;;;23.17;64.15;101081.69;1017262;29;631;-77
2022/08/03 03:18:01;;;;;;;;;;;;;;;23.13;64.56;101085.78;1017271;29;646;-77
2022/08/03 03:18:52;;;;;;;;;;;;;;;23.16;64.39;101080.00;1017051;29;686;-77
2022/08/03 03:19:44;;;;;;;;;;;;;;;23.19;63.97;101085.09;1017418;29;690;-77
2022/08/03 03:20:34;;;;;;;;;;;;;;;23.16;64.11;101085.44;1017307;29;639;-78
2022/08/03 03:21:25;;;;;;;;;;;;;;;23.19;64.44;101085.09;1016805;29;670;-78
2022/08/03 03:22:15;;;;;;;;;;;;;;;23.17;64.13;101086.28;1017257;29;646;-78
2022/08/03 03:23:05;;;;;;;;;;;;;;;23.18;64.40;101080.66;1017000;29;603;-78
2022/08/03 03:23:56;;;;;;;;;;;;;;;23.23;63.76;101079.28;1016979;29;631;-78
2022/08/03 03:24:47;;;;;;;;;;;;;;;23.25;63.64;101088.13;1017331;29;650;-78
2022/08/03 03:25:37;;;;;;;;;;;;;;;23.28;63.60;101085.06;1017565;28;1675;-77
2022/08/03 03:26:28;;;;;;;;;;;;;;;23.29;63.40;101086.75;1016664;29;1763;-76
2022/08/03 03:27:18;;;;;;;;;;;;;;;23.29;64.06;101090.31;1016728;29;686;-76
2022/08/03 03:28:09;;;;;;;;;;;;;;;23.19;63.88;101093.25;1016760;29;594;-76
2022/08/03 03:28:59;;;;;;;;;;;;;;;23.18;63.89;101087.97;1016583;29;694;-76
2022/08/03 03:29:49;;;;;;;;;;;;;;;23.19;64.06;101087.81;1016467;29;714;-76
2022/08/03 03:30:40;;;;;;;;;;;;;;;23.23;63.95;101087.47;1016542;29;1974;-76
2022/08/03 03:31:30;;;;;;;;;;;;;;;23.25;64.10;101090.84;1016647;29;662;-77
2022/08/03 03:32:21;;;;;;;;;;;;;;;23.25;63.68;101088.13;1016774;29;729;-76
2022/08/03 03:33:11;;;;;;;;;;;;;;;23.25;64.12;101094.41;1016783;29;600;-76
2022/08/03 03:34:02;;;;;;;;;;;;;;;23.24;63.78;101086.44;1016702;29;628;-76
2022/08/03 03:34:52;;;;;;;;;;;;;;;23.15;64.17;101082.88;1016817;29;714;-76
2022/08/03 03:35:44;;;;;;;;;;;;;;;23.19;64.27;101095.97;1016277;29;635;-76
2022/08/03 03:36:34;;;;;;;;;;;;;;;23.20;64.27;101092.22;1017110;29;675;-75
2022/08/03 03:37:25;;;;;;;;;;;;;;;23.23;63.76;101085.59;1017410;29;607;-75
2022/08/03 03:38:15;;;;;;;;;;;;;;;23.25;63.65;101088.13;1017450;29;666;-75
2022/08/03 03:39:06;;;;;;;;;;;;;;;23.25;63.91;101082.69;1017386;29;600;-76
2022/08/03 03:39:56;;;;;;;;;;;;;;;23.25;63.85;101088.13;1017378;29;670;-75
2022/08/03 03:40:47;;;;;;;;;;;;;;;23.25;64.03;101083.53;1017537;29;607;-76
2022/08/03 03:41:37;;;;;;;;;;;;;;;23.26;63.94;101081.66;1017522;29;694;-75
2022/08/03 03:42:28;;;;;;;;;;;;;;;23.19;63.55;101090.53;1017308;29;913;-76
2022/08/03 03:43:18;;;;;;;;;;;;;;;23.13;64.22;101091.22;1017564;29;627;-76
2022/08/03 03:44:09;;;;;;;;;;;;;;;23.10;64.34;101091.59;1017404;29;627;-76
2022/08/03 03:44:59;;;;;;;;;;;;;;;23.13;64.50;101091.22;1017414;29;639;-76
2022/08/03 03:45:50;;;;;;;;;;;;;;;23.17;64.00;101092.56;1014032;29;655;-75
2022/08/03 03:46:40;;;;;;;;;;;;;;;23.20;64.08;101085.94;1012824;29;782;-75
2022/08/03 03:47:31;;;;;;;;;;;;;;;23.20;63.92;101089.50;1012949;29;624;-75
2022/08/03 03:48:21;;;;;;;;;;;;;;;23.23;63.67;101082.03;1012976;29;702;-76
2022/08/03 03:49:12;;;;;;;;;;;;;;;23.19;63.87;101085.09;1017634;29;575;-77
2022/08/03 03:50:02;;;;;;;;;;;;;;;23.19;64.33;101079.66;1017206;29;740;-76
2022/08/03 03:50:53;;;;;;;;;;;;;;;23.22;64.10;101083.03;1012897;29;1899;-75
2022/08/03 03:51:43;;;;;;;;;;;;;;;23.21;64.20;101082.19;1013009;29;686;-75
2022/08/03 03:52:34;;;;;;;;;;;;;;;23.20;63.92;101081.34;1012775;29;643;-76
2022/08/03 03:53:24;;;;;;;;;;;;;;;23.23;63.69;101090.19;1013000;29;643;-76
2022/08/03 03:54:14;;;;;;;;;;;;;;;23.20;63.66;101089.50;1013544;29;631;-76
2022/08/03 03:55:05;;;;;;;;;;;;;;;23.22;63.65;101080.31;1017668;29;665;-76
2022/08/03 03:55:55;;;;;;;;;;;;;;;23.23;63.76;101087.47;1017144;29;642;-76
2022/08/03 03:56:46;;;;;;;;;;;;;;;23.22;63.61;101088.47;1013092;29;552;-76
2022/08/03 03:57:36;;;;;;;;;;;;;;;23.19;63.89;101089.69;1012961;29;706;-76
2022/08/03 03:58:27;;;;;;;;;;;;;;;23.19;63.82;101090.53;1012833;29;646;-76
2022/08/03 03:59:17;;;;;;;;;;;;;;;23.19;63.73;101089.69;1016886;29;619;-76
2022/08/03 04:00:07;;;;;;;;;;;;;;;23.18;63.86;101088.81;1017358;29;769;-76
2022/08/03 04:00:58;;;;;;;;;;;;;;;23.20;63.45;101086.78;1017253;29;702;-76
2022/08/03 04:01:48;;;;;;;;;;;;;;;23.20;64.03;101083.22;1017508;29;697;-76
2022/08/03 04:02:39;;;;;;;;;;;;;;;23.18;63.69;101090.69;1017210;29;627;-76
2022/08/03 04:03:29;;;;;;;;;;;;;;;23.14;63.77;101087.47;1017385;29;647;-77
2022/08/03 04:10:57;;;;;;;;;;;;;;;23.22;63.64;101091.19;1013906;29;742;-76
2022/08/03 04:11:16;;;;;;;;;;;;;;;23.17;63.81;101091.72;1013928;29;951;-76
2022/08/03 04:12:07;;;;;;;;;;;;;;;23.17;63.75;101094.44;1013379;29;635;-76
2022/08/03 04:12:57;;;;;;;;;;;;;;;23.13;64.15;101091.22;1013530;29;726;-76
2022/08/03 04:13:48;;;;;;;;;;;;;;;23.12;64.30;101086.78;1013442;29;679;-75
2022/08/03 04:14:38;;;;;;;;;;;;;;;23.12;64.12;101088.66;1013355;29;683;-77
2022/08/03 04:15:29;;;;;;;;;;;;;;;23.13;64.24;101085.78;1013277;29;699;-77
2022/08/03 04:16:19;;;;;;;;;;;;;;;23.04;64.43;101086.00;1013385;29;1084;-77
2022/08/03 04:17:10;;;;;;;;;;;;;;;23.09;64.15;101089.91;1012831;29;687;-76
2022/08/03 04:18:00;;;;;;;;;;;;;;;23.08;63.95;101090.06;1017489;29;589;-77
2022/08/03 04:18:51;;;;;;;;;;;;;;;23.11;64.19;101087.81;1017602;29;615;-77
2022/08/03 04:19:41;;;;;;;;;;;;;;;23.13;64.23;101093.94;1013567;29;654;-77
2022/08/03 04:20:31;;;;;;;;;;;;;;;23.10;63.72;101091.59;1012746;29;706;-77
2022/08/03 04:21:22;;;;;;;;;;;;;;;23.11;64.21;101101.41;1013312;29;647;-76
2022/08/03 04:22:12;;;;;;;;;;;;;;;23.12;63.90;101094.94;1013890;29;678;-77
2022/08/03 04:23:03;;;;;;;;;;;;;;;23.12;63.84;101099.53;1013145;29;665;-78
2022/08/03 04:23:53;;;;;;;;;;;;;;;23.13;63.71;101095.81;1016839;29;734;-77
2022/08/03 04:24:44;;;;;;;;;;;;;;;23.14;63.77;101098.34;1020158;29;1362;-78
2022/08/03 04:25:34;;;;;;;;;;;;;;;23.15;63.74;101093.75;1017261;29;686;-78
2022/08/03 04:26:25;;;;;;;;;;;;;;;23.14;63.98;101092.91;1016792;29;977;-78
2022/08/03 04:27:15;;;;;;;;;;;;;;;23.04;64.45;101094.16;1016187;29;693;-77
2022/08/03 04:28:05;;;;;;;;;;;;;;;23.07;64.00;101086.50;1017606;29;678;-77
2022/08/03 04:28:56;;;;;;;;;;;;;;;23.07;63.58;101091.09;1017592;29;619;-77
2022/08/03 04:29:46;;;;;;;;;;;;;;;23.07;64.14;101086.50;1017540;29;639;-77
2022/08/03 04:30:37;;;;;;;;;;;;;;;23.06;64.15;101090.22;1015622;29;629;-77
2022/08/03 04:31:27;;;;;;;;;;;;;;;23.07;64.23;101086.50;1016833;29;658;-77